Řízení letového provozu České republiky
Letiste: LKKB Aktualizace: 01.06.2016 07:08:09  UTC
 METAR LKKB 01.06. 07:00 ...
METAR LKKB 010700Z VRB02KT 5000 BR SCT002 BKN005 15/14 Q1011 NOSIG=
 TAF LKKB 01.06. 05:00 ...
TAF LKKB 010500Z 0106/0206 VRB02KT 5000 BR NSC      TEMPO 0106/0107 2000 BR SCT004      BECMG 0107/0109 15008KT 9999 SCT025      TEMPO 0109/0119 7000 SHRA SCT025TCU BKN035      PROB30 TEMPO 0111/0117 21016G26KT 5000 TSRA BKN025CB=